createdAt,value
2019-03-25T00:00:11.641Z,928.19
2019-03-25T00:00:24.694Z,928.19
2019-03-25T00:00:37.746Z,928.24
2019-03-25T00:00:50.832Z,928.22
2019-03-25T00:01:03.897Z,928.19
2019-03-25T00:01:16.948Z,928.24
2019-03-25T00:01:29.957Z,928.24
2019-03-25T00:01:42.963Z,928.24
2019-03-25T00:01:55.988Z,928.26
2019-03-25T00:02:09.060Z,928.24
2019-03-25T00:02:21.599Z,928.26
2019-03-25T00:02:34.606Z,928.26
2019-03-25T00:02:47.345Z,928.25
2019-03-25T00:03:00.387Z,928.24
2019-03-25T00:03:13.491Z,928.25
2019-03-25T00:03:26.553Z,928.26
2019-03-25T00:03:39.590Z,928.23
2019-03-25T00:03:52.598Z,928.27
2019-03-25T00:04:05.644Z,928.25
2019-03-25T00:04:18.646Z,928.29
2019-03-25T00:04:31.772Z,928.29
2019-03-25T00:04:44.797Z,928.32
2019-03-25T00:04:57.854Z,928.25
2019-03-25T00:05:10.917Z,928.26
2019-03-25T00:05:23.539Z,928.28
2019-03-25T00:05:36.580Z,928.25
2019-03-25T00:05:49.549Z,928.24
2019-03-25T00:06:02.478Z,928.25
2019-03-25T00:06:15.441Z,928.29
2019-03-25T00:06:28.504Z,928.28
2019-03-25T00:06:41.580Z,928.29
2019-03-25T00:06:54.523Z,928.26
2019-03-25T00:07:07.514Z,928.29
2019-03-25T00:07:20.483Z,928.27
2019-03-25T00:07:33.512Z,928.27
2019-03-25T00:07:46.502Z,928.25
2019-03-25T00:07:59.540Z,928.26
2019-03-25T00:08:12.602Z,928.27
2019-03-25T00:08:25.549Z,928.23
2019-03-25T00:08:38.571Z,928.26
2019-03-25T00:09:05.818Z,928.26
2019-03-25T00:09:18.832Z,928.23
2019-03-25T00:09:31.794Z,928.25
2019-03-25T00:09:44.806Z,928.22
2019-03-25T00:09:57.874Z,928.23
2019-03-25T00:10:10.920Z,928.22
2019-03-25T00:10:23.987Z,928.21
2019-03-25T00:10:37.020Z,928.25
2019-03-25T00:10:49.544Z,928.23
2019-03-25T00:11:02.623Z,928.25
2019-03-25T00:11:15.567Z,928.26
2019-03-25T00:11:28.495Z,928.26
2019-03-25T00:11:41.511Z,928.26
2019-03-25T00:11:54.024Z,928.25
2019-03-25T00:12:06.994Z,928.24
2019-03-25T00:12:19.987Z,928.26
2019-03-25T00:12:32.528Z,928.26
2019-03-25T00:12:45.525Z,928.29
2019-03-25T00:12:58.530Z,928.29
2019-03-25T00:13:10.996Z,928.27
2019-03-25T00:13:23.519Z,928.31
2019-03-25T00:13:36.546Z,928.29
2019-03-25T00:13:49.533Z,928.26
2019-03-25T00:14:02.552Z,928.26
2019-03-25T00:14:15.546Z,928.3
2019-03-25T00:14:28.562Z,928.32
2019-03-25T00:14:41.537Z,928.29
2019-03-25T00:14:54.111Z,928.27
2019-03-25T00:15:06.915Z,928.3
2019-03-25T00:15:19.948Z,928.32
2019-03-25T00:15:32.921Z,928.35
2019-03-25T00:15:46.000Z,928.31
2019-03-25T00:16:00.625Z,928.34
2019-03-25T00:16:13.605Z,928.35
2019-03-25T00:16:26.629Z,928.34
2019-03-25T00:16:39.594Z,928.32
2019-03-25T00:16:52.597Z,928.36
2019-03-25T00:17:05.596Z,928.34
2019-03-25T00:17:18.165Z,928.32
2019-03-25T00:17:30.685Z,928.32
2019-03-25T00:17:43.725Z,928.34
2019-03-25T00:17:57.447Z,928.31
2019-03-25T00:18:10.472Z,928.36
2019-03-25T00:18:23.426Z,928.36
2019-03-25T00:18:36.394Z,928.35
2019-03-25T00:18:49.402Z,928.35
2019-03-25T00:19:02.429Z,928.34
2019-03-25T00:19:15.379Z,928.34
2019-03-25T00:19:28.347Z,928.34
2019-03-25T00:19:41.329Z,928.36
2019-03-25T00:19:54.352Z,928.36
2019-03-25T00:20:07.344Z,928.31
2019-03-25T00:20:20.362Z,928.32
2019-03-25T00:20:33.403Z,928.32
2019-03-25T00:20:46.429Z,928.3
2019-03-25T00:20:59.525Z,928.33
2019-03-25T00:21:12.597Z,928.31
2019-03-25T00:21:25.664Z,928.34
2019-03-25T00:21:38.681Z,928.33
2019-03-25T00:21:51.657Z,928.32
2019-03-25T00:22:04.710Z,928.33
2019-03-25T00:22:17.741Z,928.34
2019-03-25T00:22:30.728Z,928.34
2019-03-25T00:22:43.816Z,928.32
2019-03-25T00:22:56.853Z,928.34
2019-03-25T00:23:09.327Z,928.31
2019-03-25T00:23:22.355Z,928.34
2019-03-25T00:23:35.421Z,928.36
2019-03-25T00:23:48.410Z,928.34
2019-03-25T00:24:00.948Z,928.37
2019-03-25T00:24:14.007Z,928.38
2019-03-25T00:24:37.803Z,928.36
2019-03-25T00:24:51.201Z,928.36
2019-03-25T00:25:04.324Z,928.35
2019-03-25T00:25:17.297Z,928.36
2019-03-25T00:25:30.311Z,928.36
2019-03-25T00:25:43.323Z,928.36
2019-03-25T00:25:56.341Z,928.38
2019-03-25T00:26:09.371Z,928.39
2019-03-25T00:26:22.328Z,928.37
2019-03-25T00:26:35.465Z,928.37
2019-03-25T00:26:48.500Z,928.37
2019-03-25T00:27:01.427Z,928.41
2019-03-25T00:27:14.449Z,928.42
2019-03-25T00:27:27.501Z,928.44
2019-03-25T00:27:40.506Z,928.46
2019-03-25T00:27:53.581Z,928.42
2019-03-25T00:28:06.575Z,928.44
2019-03-25T00:28:20.951Z,928.45
2019-03-25T00:28:33.981Z,928.45
2019-03-25T00:28:46.983Z,928.45
2019-03-25T00:28:59.974Z,928.47
2019-03-25T00:29:12.942Z,928.49
2019-03-25T00:29:25.956Z,928.47
2019-03-25T00:29:38.915Z,928.43
2019-03-25T00:29:51.890Z,928.46
2019-03-25T00:30:04.915Z,928.43
2019-03-25T00:30:17.939Z,928.44
2019-03-25T00:30:30.878Z,928.44
2019-03-25T00:30:43.912Z,928.45
2019-03-25T00:30:56.932Z,928.48
2019-03-25T00:31:09.878Z,928.43
2019-03-25T00:31:22.873Z,928.46
2019-03-25T00:31:35.878Z,928.46
2019-03-25T00:31:48.812Z,928.46
2019-03-25T00:32:01.867Z,928.45
2019-03-25T00:32:14.848Z,928.44
2019-03-25T00:32:27.850Z,928.48
2019-03-25T00:32:40.865Z,928.46
2019-03-25T00:32:53.894Z,928.46
2019-03-25T00:33:07.361Z,928.43
2019-03-25T00:33:20.415Z,928.49
2019-03-25T00:33:33.461Z,928.46
2019-03-25T00:33:46.483Z,928.47
2019-03-25T00:33:59.460Z,928.49
2019-03-25T00:34:12.404Z,928.46
2019-03-25T00:34:24.950Z,928.46
2019-03-25T00:34:37.547Z,928.47
2019-03-25T00:34:50.614Z,928.47
2019-03-25T00:35:03.636Z,928.44
2019-03-25T00:35:16.641Z,928.45
2019-03-25T00:35:29.740Z,928.5
2019-03-25T00:35:42.735Z,928.5
2019-03-25T00:35:55.693Z,928.52
2019-03-25T00:36:08.735Z,928.46
2019-03-25T00:36:21.744Z,928.48
2019-03-25T00:36:34.741Z,928.49
2019-03-25T00:36:47.702Z,928.48
2019-03-25T00:37:00.692Z,928.46
2019-03-25T00:37:13.757Z,928.48
2019-03-25T00:37:26.725Z,928.5
2019-03-25T00:37:39.714Z,928.48
2019-03-25T00:37:52.748Z,928.51
2019-03-25T00:38:05.860Z,928.5
2019-03-25T00:38:18.848Z,928.49
2019-03-25T00:38:31.881Z,928.5
2019-03-25T00:38:44.852Z,928.55
2019-03-25T00:38:57.838Z,928.52
2019-03-25T00:39:10.854Z,928.53
2019-03-25T00:39:23.794Z,928.52
2019-03-25T00:39:36.751Z,928.55
2019-03-25T00:39:49.808Z,928.53
2019-03-25T00:40:02.817Z,928.5
2019-03-25T00:40:15.864Z,928.52
2019-03-25T00:40:28.856Z,928.52
2019-03-25T00:40:41.940Z,928.49
2019-03-25T00:40:55.028Z,928.52
2019-03-25T00:41:08.068Z,928.52
2019-03-25T00:41:21.076Z,928.51
2019-03-25T00:41:34.081Z,928.51
2019-03-25T00:41:47.058Z,928.51
2019-03-25T00:42:00.061Z,928.55
2019-03-25T00:42:13.022Z,928.52
2019-03-25T00:42:26.093Z,928.52
2019-03-25T00:42:39.044Z,928.51
2019-03-25T00:42:52.113Z,928.53
2019-03-25T00:43:05.047Z,928.53
2019-03-25T00:43:17.948Z,928.54
2019-03-25T00:43:30.890Z,928.51
2019-03-25T00:43:43.842Z,928.54
2019-03-25T00:43:56.811Z,928.55
2019-03-25T00:44:09.800Z,928.55
2019-03-25T00:44:22.819Z,928.55
2019-03-25T00:44:35.810Z,928.55
2019-03-25T00:44:48.887Z,928.54
2019-03-25T00:45:01.910Z,928.56
2019-03-25T00:45:14.931Z,928.54
2019-03-25T00:45:27.894Z,928.57
2019-03-25T00:45:40.855Z,928.57
2019-03-25T00:45:53.421Z,928.55
2019-03-25T00:46:06.543Z,928.54
2019-03-25T00:46:19.064Z,928.56
2019-03-25T00:46:31.995Z,928.54
2019-03-25T00:46:45.005Z,928.54
2019-03-25T00:46:58.099Z,928.54
2019-03-25T00:47:11.155Z,928.52
2019-03-25T00:47:24.175Z,928.54
2019-03-25T00:47:37.155Z,928.55
2019-03-25T00:47:50.186Z,928.53
2019-03-25T00:48:04.160Z,928.56
2019-03-25T00:48:17.185Z,928.53
2019-03-25T00:48:30.179Z,928.51
2019-03-25T00:48:43.278Z,928.51
2019-03-25T00:48:56.305Z,928.51
2019-03-25T00:49:09.254Z,928.53
2019-03-25T00:49:22.224Z,928.51
2019-03-25T00:49:35.288Z,928.5
2019-03-25T00:49:48.246Z,928.5
2019-03-25T00:50:01.512Z,928.54
2019-03-25T00:50:14.553Z,928.53
2019-03-25T00:50:27.561Z,928.5
2019-03-25T00:50:40.564Z,928.51
2019-03-25T00:50:53.496Z,928.51
2019-03-25T00:51:06.513Z,928.47
2019-03-25T00:51:19.534Z,928.49
2019-03-25T00:51:32.561Z,928.54
2019-03-25T00:51:45.514Z,928.5
2019-03-25T00:51:58.583Z,928.51
2019-03-25T00:52:11.546Z,928.49
2019-03-25T00:52:24.509Z,928.53
2019-03-25T00:52:37.493Z,928.53
2019-03-25T00:52:50.436Z,928.5
2019-03-25T00:53:03.432Z,928.45
2019-03-25T00:53:16.429Z,928.48
2019-03-25T00:53:29.454Z,928.5
2019-03-25T00:53:42.448Z,928.5
2019-03-25T00:53:55.476Z,928.47
2019-03-25T00:54:07.987Z,928.49
2019-03-25T00:54:21.004Z,928.49
2019-03-25T00:54:33.592Z,928.51
2019-03-25T00:54:56.908Z,928.49
2019-03-25T00:55:09.871Z,928.48
2019-03-25T00:55:22.902Z,928.49
2019-03-25T00:55:35.883Z,928.48
2019-03-25T00:55:48.922Z,928.47
2019-03-25T00:56:01.946Z,928.48
2019-03-25T00:56:15.006Z,928.47
2019-03-25T00:56:28.009Z,928.49
2019-03-25T00:56:41.057Z,928.47
2019-03-25T00:56:54.155Z,928.47
2019-03-25T00:57:07.157Z,928.46
2019-03-25T00:57:20.156Z,928.46
2019-03-25T00:57:33.127Z,928.47
2019-03-25T00:57:46.150Z,928.46
2019-03-25T00:57:59.114Z,928.46
2019-03-25T00:58:12.112Z,928.47
2019-03-25T00:58:25.090Z,928.48
2019-03-25T00:58:38.112Z,928.47
2019-03-25T00:58:51.075Z,928.47
2019-03-25T00:59:03.993Z,928.43
2019-03-25T00:59:16.072Z,928.49
2019-03-25T00:59:29.074Z,928.47
2019-03-25T00:59:41.619Z,928.48
2019-03-25T00:59:56.083Z,928.46
2019-03-25T01:00:09.148Z,928.46
2019-03-25T01:00:22.068Z,928.47
2019-03-25T01:00:35.059Z,928.5
2019-03-25T01:00:48.052Z,928.51
2019-03-25T01:01:01.129Z,928.54
2019-03-25T01:01:14.118Z,928.5
2019-03-25T01:01:27.134Z,928.5
2019-03-25T01:01:40.117Z,928.51
2019-03-25T01:01:53.049Z,928.5
2019-03-25T01:02:06.092Z,928.5
2019-03-25T01:02:19.198Z,928.49
2019-03-25T01:02:32.157Z,928.5
2019-03-25T01:02:45.202Z,928.5
2019-03-25T01:02:58.178Z,928.51
2019-03-25T01:03:11.416Z,928.53
2019-03-25T01:03:24.440Z,928.48
2019-03-25T01:03:37.509Z,928.5
2019-03-25T01:03:50.532Z,928.5
2019-03-25T01:04:03.595Z,928.52
2019-03-25T01:04:16.538Z,928.51
2019-03-25T01:04:29.564Z,928.5
2019-03-25T01:04:42.544Z,928.49
2019-03-25T01:04:55.560Z,928.49
2019-03-25T01:05:08.607Z,928.48
2019-03-25T01:05:21.624Z,928.47
2019-03-25T01:05:34.577Z,928.52
2019-03-25T01:05:47.631Z,928.52
2019-03-25T01:06:00.638Z,928.51
2019-03-25T01:06:13.672Z,928.52
2019-03-25T01:06:26.651Z,928.51
2019-03-25T01:06:39.597Z,928.48
2019-03-25T01:06:52.566Z,928.5
2019-03-25T01:07:05.647Z,928.52
2019-03-25T01:07:18.657Z,928.52
2019-03-25T01:07:31.673Z,928.5
2019-03-25T01:07:44.639Z,928.5
2019-03-25T01:07:57.629Z,928.52
2019-03-25T01:08:10.550Z,928.52
2019-03-25T01:08:23.638Z,928.53
2019-03-25T01:08:36.671Z,928.52
2019-03-25T01:08:49.592Z,928.48
2019-03-25T01:09:02.645Z,928.53
2019-03-25T01:09:15.635Z,928.52
2019-03-25T01:09:28.613Z,928.52
2019-03-25T01:09:41.613Z,928.53
2019-03-25T01:09:54.561Z,928.52
2019-03-25T01:10:07.649Z,928.5
2019-03-25T01:10:20.201Z,928.55
2019-03-25T01:10:33.243Z,928.53
2019-03-25T01:10:46.297Z,928.51
2019-03-25T01:10:59.305Z,928.48
2019-03-25T01:11:12.315Z,928.5
2019-03-25T01:11:25.290Z,928.52
2019-03-25T01:11:49.665Z,928.53
2019-03-25T01:12:02.724Z,928.47
2019-03-25T01:12:15.725Z,928.5
2019-03-25T01:12:28.719Z,928.5
2019-03-25T01:12:41.727Z,928.5
2019-03-25T01:12:54.748Z,928.5
2019-03-25T01:13:07.252Z,928.51
2019-03-25T01:13:20.256Z,928.51
2019-03-25T01:13:33.323Z,928.53
2019-03-25T01:13:46.313Z,928.53
2019-03-25T01:13:59.324Z,928.5
2019-03-25T01:14:12.316Z,928.51
2019-03-25T01:14:25.403Z,928.48
2019-03-25T01:14:38.434Z,928.5
2019-03-25T01:14:51.400Z,928.54
2019-03-25T01:15:04.434Z,928.5
2019-03-25T01:15:17.501Z,928.53
2019-03-25T01:15:30.537Z,928.55
2019-03-25T01:15:43.520Z,928.53
2019-03-25T01:15:56.602Z,928.53
2019-03-25T01:16:09.564Z,928.52
2019-03-25T01:16:22.664Z,928.54
2019-03-25T01:16:35.245Z,928.5
2019-03-25T01:16:48.195Z,928.52
2019-03-25T01:17:01.143Z,928.53
2019-03-25T01:17:14.140Z,928.51
2019-03-25T01:17:27.133Z,928.51
2019-03-25T01:17:40.179Z,928.5
2019-03-25T01:17:53.161Z,928.49
2019-03-25T01:18:18.200Z,928.53
2019-03-25T01:18:31.222Z,928.52
2019-03-25T01:18:44.258Z,928.52
2019-03-25T01:18:57.270Z,928.53
2019-03-25T01:19:10.293Z,928.51
2019-03-25T01:19:23.374Z,928.54
2019-03-25T01:19:36.456Z,928.5
2019-03-25T01:19:49.456Z,928.51
2019-03-25T01:20:02.009Z,928.52
2019-03-25T01:20:14.724Z,928.5
2019-03-25T01:20:28.521Z,928.52
2019-03-25T01:20:41.681Z,928.51
2019-03-25T01:20:54.657Z,928.5
2019-03-25T01:21:07.732Z,928.51
2019-03-25T01:21:20.702Z,928.51
2019-03-25T01:21:33.733Z,928.47
2019-03-25T01:21:46.783Z,928.5
2019-03-25T01:21:59.742Z,928.5
2019-03-25T01:22:12.743Z,928.5
2019-03-25T01:22:25.687Z,928.46
2019-03-25T01:22:38.734Z,928.45
2019-03-25T01:22:51.692Z,928.48
2019-03-25T01:23:04.727Z,928.47
2019-03-25T01:23:17.731Z,928.48
2019-03-25T01:23:30.812Z,928.47
2019-03-25T01:23:43.834Z,928.52
2019-03-25T01:23:56.832Z,928.54
2019-03-25T01:24:09.418Z,928.49
2019-03-25T01:24:22.449Z,928.5
2019-03-25T01:24:35.100Z,928.54
2019-03-25T01:24:48.092Z,928.51
2019-03-25T01:25:11.819Z,928.58
2019-03-25T01:25:24.865Z,928.55
2019-03-25T01:25:37.843Z,928.55
2019-03-25T01:25:50.967Z,928.52
2019-03-25T01:26:04.010Z,928.53
2019-03-25T01:26:16.510Z,928.52
2019-03-25T01:26:29.559Z,928.54
2019-03-25T01:26:42.569Z,928.53
2019-03-25T01:26:55.588Z,928.55
2019-03-25T01:27:08.695Z,928.52
2019-03-25T01:27:21.755Z,928.52
2019-03-25T01:27:34.777Z,928.48
2019-03-25T01:27:47.775Z,928.51
2019-03-25T01:28:00.782Z,928.53
2019-03-25T01:28:13.355Z,928.53
2019-03-25T01:28:26.275Z,928.55
2019-03-25T01:28:39.297Z,928.52
2019-03-25T01:28:52.327Z,928.52
2019-03-25T01:29:04.830Z,928.53
2019-03-25T01:29:17.818Z,928.5
2019-03-25T01:29:30.867Z,928.53
2019-03-25T01:29:43.884Z,928.51
2019-03-25T01:29:56.869Z,928.51
2019-03-25T01:30:09.892Z,928.54
2019-03-25T01:30:22.892Z,928.53
2019-03-25T01:30:35.417Z,928.54
2019-03-25T01:30:48.425Z,928.52
2019-03-25T01:31:01.546Z,928.51
2019-03-25T01:31:14.546Z,928.52
2019-03-25T01:31:27.070Z,928.53
2019-03-25T01:31:40.025Z,928.53
2019-03-25T01:31:53.070Z,928.52
2019-03-25T01:32:06.050Z,928.51
2019-03-25T01:32:18.606Z,928.52
2019-03-25T01:32:31.585Z,928.56
2019-03-25T01:32:44.103Z,928.56
2019-03-25T01:32:57.113Z,928.53
2019-03-25T01:33:10.202Z,928.55
2019-03-25T01:33:24.053Z,928.56
2019-03-25T01:33:37.110Z,928.56
2019-03-25T01:33:49.588Z,928.56
2019-03-25T01:34:02.610Z,928.57
2019-03-25T01:34:15.546Z,928.56
2019-03-25T01:34:28.523Z,928.55
2019-03-25T01:34:41.546Z,928.57
2019-03-25T01:34:54.503Z,928.55
2019-03-25T01:35:07.604Z,928.57
2019-03-25T01:35:20.556Z,928.58
2019-03-25T01:35:33.534Z,928.57
2019-03-25T01:35:46.540Z,928.59
2019-03-25T01:35:59.636Z,928.55
2019-03-25T01:36:12.639Z,928.57
2019-03-25T01:36:25.726Z,928.52
2019-03-25T01:36:38.714Z,928.53
2019-03-25T01:36:51.735Z,928.56
2019-03-25T01:37:04.762Z,928.56
2019-03-25T01:37:17.815Z,928.56
2019-03-25T01:37:30.860Z,928.53
2019-03-25T01:37:43.858Z,928.53
2019-03-25T01:37:56.912Z,928.52
2019-03-25T01:38:09.952Z,928.51
2019-03-25T01:38:22.996Z,928.52
2019-03-25T01:38:36.009Z,928.53
2019-03-25T01:38:48.996Z,928.48
2019-03-25T01:39:01.998Z,928.52
2019-03-25T01:39:14.989Z,928.5
2019-03-25T01:39:27.513Z,928.48
2019-03-25T01:39:40.473Z,928.52
2019-03-25T01:39:53.452Z,928.52
2019-03-25T01:40:06.510Z,928.5
2019-03-25T01:40:19.535Z,928.51
2019-03-25T01:40:32.574Z,928.51
2019-03-25T01:40:45.591Z,928.5
2019-03-25T01:40:58.504Z,928.47
2019-03-25T01:41:11.440Z,928.51
2019-03-25T01:41:24.479Z,928.47
2019-03-25T01:41:37.454Z,928.47
2019-03-25T01:41:50.414Z,928.48
2019-03-25T01:42:03.367Z,928.51
2019-03-25T01:42:18.497Z,928.5
2019-03-25T01:42:31.488Z,928.5
2019-03-25T01:42:44.557Z,928.48
2019-03-25T01:42:57.570Z,928.53
2019-03-25T01:43:10.588Z,928.55
2019-03-25T01:43:23.561Z,928.51
2019-03-25T01:43:36.608Z,928.54
2019-03-25T01:43:49.566Z,928.5
2019-03-25T01:44:02.532Z,928.48
2019-03-25T01:44:15.016Z,928.48
2019-03-25T01:44:28.099Z,928.54
2019-03-25T01:44:40.692Z,928.5
2019-03-25T01:44:53.693Z,928.52
2019-03-25T01:45:06.680Z,928.53
2019-03-25T01:45:19.767Z,928.5
2019-03-25T01:45:32.811Z,928.47
2019-03-25T01:45:45.824Z,928.51
2019-03-25T01:45:58.851Z,928.51
2019-03-25T01:46:11.815Z,928.52
2019-03-25T01:46:24.815Z,928.53
2019-03-25T01:46:37.854Z,928.53
2019-03-25T01:46:50.848Z,928.51
2019-03-25T01:47:03.825Z,928.53
2019-03-25T01:47:16.895Z,928.54
2019-03-25T01:47:29.963Z,928.53
2019-03-25T01:47:42.985Z,928.51
2019-03-25T01:47:56.005Z,928.5
2019-03-25T01:48:08.625Z,928.52
2019-03-25T01:48:21.682Z,928.52
2019-03-25T01:48:35.438Z,928.52
2019-03-25T01:48:48.492Z,928.52
2019-03-25T01:49:01.490Z,928.5
2019-03-25T01:49:14.508Z,928.55
2019-03-25T01:49:27.536Z,928.53
2019-03-25T01:49:40.527Z,928.54
2019-03-25T01:49:53.547Z,928.51
2019-03-25T01:50:06.501Z,928.5
2019-03-25T01:50:19.512Z,928.51
2019-03-25T01:50:32.530Z,928.47
2019-03-25T01:50:45.497Z,928.51
2019-03-25T01:50:58.483Z,928.51
2019-03-25T01:51:11.356Z,928.49
2019-03-25T01:51:24.319Z,928.49
2019-03-25T01:51:37.249Z,928.52
2019-03-25T01:51:50.302Z,928.51
2019-03-25T01:52:03.363Z,928.5
2019-03-25T01:52:16.358Z,928.51
2019-03-25T01:52:29.348Z,928.48
2019-03-25T01:52:42.358Z,928.54
2019-03-25T01:52:55.380Z,928.48
2019-03-25T01:53:08.358Z,928.52
2019-03-25T01:53:21.359Z,928.55
2019-03-25T01:53:34.345Z,928.54
2019-03-25T01:53:47.339Z,928.52
2019-03-25T01:54:00.343Z,928.53
2019-03-25T01:54:13.279Z,928.53
2019-03-25T01:54:26.259Z,928.51
2019-03-25T01:54:39.271Z,928.53
2019-03-25T01:54:52.224Z,928.53
2019-03-25T01:55:17.044Z,928.55
2019-03-25T01:55:30.050Z,928.55
2019-03-25T01:55:43.028Z,928.53
2019-03-25T01:55:56.003Z,928.54
2019-03-25T01:56:09.056Z,928.53
2019-03-25T01:56:22.034Z,928.55
2019-03-25T01:56:35.019Z,928.54
2019-03-25T01:56:48.048Z,928.54
2019-03-25T01:57:01.113Z,928.54
2019-03-25T01:57:14.038Z,928.53
2019-03-25T01:57:27.029Z,928.55
2019-03-25T01:57:40.026Z,928.55
2019-03-25T01:57:53.095Z,928.53
2019-03-25T01:58:06.027Z,928.52
2019-03-25T01:58:18.998Z,928.51
2019-03-25T01:58:31.994Z,928.53
2019-03-25T01:58:45.039Z,928.5
2019-03-25T01:58:57.518Z,928.52
2019-03-25T01:59:10.540Z,928.52
2019-03-25T01:59:23.592Z,928.53
2019-03-25T01:59:36.639Z,928.59
2019-03-25T01:59:49.618Z,928.53
2019-03-25T02:00:02.538Z,928.53
2019-03-25T02:00:15.544Z,928.57
2019-03-25T02:00:28.555Z,928.57
2019-03-25T02:00:41.576Z,928.6
2019-03-25T02:00:54.609Z,928.61
2019-03-25T02:01:07.558Z,928.58
2019-03-25T02:01:20.579Z,928.54
2019-03-25T02:01:33.511Z,928.59
2019-03-25T02:01:46.504Z,928.59
2019-03-25T02:01:59.466Z,928.57
2019-03-25T02:02:12.031Z,928.56
2019-03-25T02:02:24.562Z,928.6
2019-03-25T02:02:37.652Z,928.58
2019-03-25T02:02:50.652Z,928.61
2019-03-25T02:03:03.628Z,928.57
2019-03-25T02:03:16.591Z,928.57
2019-03-25T02:03:29.070Z,928.58
2019-03-25T02:03:42.342Z,928.57
2019-03-25T02:03:55.280Z,928.56
2019-03-25T02:04:08.294Z,928.55
2019-03-25T02:04:21.261Z,928.55
2019-03-25T02:04:34.258Z,928.52
2019-03-25T02:04:47.212Z,928.5
2019-03-25T02:05:00.364Z,928.51
2019-03-25T02:05:13.493Z,928.55
2019-03-25T02:05:26.557Z,928.56
2019-03-25T02:05:39.571Z,928.55
2019-03-25T02:05:52.586Z,928.5
2019-03-25T02:06:05.582Z,928.5
2019-03-25T02:06:18.668Z,928.56
2019-03-25T02:06:31.703Z,928.54
2019-03-25T02:06:44.700Z,928.53
2019-03-25T02:06:57.649Z,928.47
2019-03-25T02:07:10.693Z,928.52
2019-03-25T02:07:23.703Z,928.51
2019-03-25T02:07:36.726Z,928.52
2019-03-25T02:07:49.754Z,928.52
2019-03-25T02:08:02.822Z,928.5
2019-03-25T02:08:15.884Z,928.5
2019-03-25T02:08:28.912Z,928.49
2019-03-25T02:08:41.941Z,928.5
2019-03-25T02:08:54.931Z,928.51
2019-03-25T02:09:07.571Z,928.51
2019-03-25T02:09:20.650Z,928.52
2019-03-25T02:09:33.695Z,928.51
2019-03-25T02:09:46.597Z,928.51
2019-03-25T02:09:59.562Z,928.51
2019-03-25T02:10:12.587Z,928.51
2019-03-25T02:10:25.571Z,928.51
2019-03-25T02:10:38.541Z,928.51
2019-03-25T02:10:51.499Z,928.53
2019-03-25T02:11:04.477Z,928.52
2019-03-25T02:11:17.410Z,928.48
2019-03-25T02:11:32.403Z,928.52
2019-03-25T02:11:45.386Z,928.5
2019-03-25T02:11:58.366Z,928.54
2019-03-25T02:12:11.327Z,928.53
2019-03-25T02:12:24.362Z,928.53
2019-03-25T02:12:37.475Z,928.55
2019-03-25T02:12:50.522Z,928.54
2019-03-25T02:13:03.596Z,928.54
2019-03-25T02:13:16.649Z,928.55
2019-03-25T02:13:29.716Z,928.5
2019-03-25T02:13:42.738Z,928.55
2019-03-25T02:13:55.755Z,928.54
2019-03-25T02:14:08.751Z,928.52
2019-03-25T02:14:21.759Z,928.54
2019-03-25T02:14:34.731Z,928.49
2019-03-25T02:14:47.753Z,928.54
2019-03-25T02:15:00.743Z,928.51
2019-03-25T02:15:13.769Z,928.53
2019-03-25T02:15:26.769Z,928.55
2019-03-25T02:15:39.842Z,928.54
2019-03-25T02:15:52.869Z,928.53
2019-03-25T02:16:05.773Z,928.52
2019-03-25T02:16:18.699Z,928.53
2019-03-25T02:16:31.732Z,928.52
2019-03-25T02:16:45.898Z,928.52
2019-03-25T02:16:58.971Z,928.53
2019-03-25T02:17:11.928Z,928.52
2019-03-25T02:17:24.924Z,928.53
2019-03-25T02:17:37.990Z,928.52
2019-03-25T02:17:51.008Z,928.5
2019-03-25T02:18:03.995Z,928.52
2019-03-25T02:18:16.987Z,928.5
2019-03-25T02:18:29.550Z,928.5
2019-03-25T02:18:43.329Z,928.52
2019-03-25T02:18:56.291Z,928.51
2019-03-25T02:19:09.350Z,928.51
2019-03-25T02:19:22.261Z,928.51
2019-03-25T02:19:35.347Z,928.5
2019-03-25T02:19:48.333Z,928.49
2019-03-25T02:20:01.415Z,928.48
2019-03-25T02:20:25.478Z,928.52
2019-03-25T02:20:38.856Z,928.47
2019-03-25T02:20:51.842Z,928.5
2019-03-25T02:21:04.805Z,928.51
2019-03-25T02:21:17.777Z,928.5
2019-03-25T02:21:30.837Z,928.52
2019-03-25T02:21:43.847Z,928.52
2019-03-25T02:21:56.462Z,928.51
2019-03-25T02:22:09.036Z,928.53
2019-03-25T02:22:21.627Z,928.5
2019-03-25T02:22:35.127Z,928.5
2019-03-25T02:22:48.821Z,928.54
2019-03-25T02:23:03.032Z,928.52
2019-03-25T02:23:17.269Z,928.52
2019-03-25T02:23:30.250Z,928.53
2019-03-25T02:23:43.241Z,928.53
2019-03-25T02:23:56.179Z,928.56
2019-03-25T02:24:09.134Z,928.56
2019-03-25T02:24:22.527Z,928.54
2019-03-25T02:24:35.550Z,928.56
2019-03-25T02:24:48.633Z,928.54
2019-03-25T02:25:01.671Z,928.58
2019-03-25T02:25:26.072Z,928.59
2019-03-25T02:25:39.141Z,928.55
2019-03-25T02:25:52.129Z,928.58
2019-03-25T02:26:05.124Z,928.57
2019-03-25T02:26:18.133Z,928.55
2019-03-25T02:26:31.125Z,928.59
2019-03-25T02:26:44.125Z,928.58
2019-03-25T02:26:57.205Z,928.55
2019-03-25T02:27:10.101Z,928.58
2019-03-25T02:27:23.095Z,928.55
2019-03-25T02:27:35.595Z,928.54
2019-03-25T02:27:48.578Z,928.57
2019-03-25T02:28:01.600Z,928.57
2019-03-25T02:28:14.560Z,928.57
2019-03-25T02:28:27.582Z,928.56
2019-03-25T02:28:40.546Z,928.55
2019-03-25T02:28:53.499Z,928.54
2019-03-25T02:29:06.516Z,928.55
2019-03-25T02:29:19.499Z,928.55
2019-03-25T02:29:32.502Z,928.54
2019-03-25T02:29:45.514Z,928.54
2019-03-25T02:29:58.567Z,928.52
2019-03-25T02:30:11.622Z,928.52
2019-03-25T02:30:24.686Z,928.56
2019-03-25T02:30:37.678Z,928.53
2019-03-25T02:30:50.711Z,928.55
2019-03-25T02:31:03.693Z,928.51
2019-03-25T02:31:16.635Z,928.52
2019-03-25T02:31:29.738Z,928.54
2019-03-25T02:31:42.815Z,928.51
2019-03-25T02:31:55.379Z,928.52
2019-03-25T02:32:08.443Z,928.52
2019-03-25T02:32:21.543Z,928.51
2019-03-25T02:32:34.600Z,928.49
2019-03-25T02:32:47.629Z,928.51
2019-03-25T02:33:00.168Z,928.51
2019-03-25T02:33:13.114Z,928.53
2019-03-25T02:33:26.104Z,928.52
2019-03-25T02:33:39.087Z,928.54
2019-03-25T02:33:53.174Z,928.53
2019-03-25T02:34:06.257Z,928.51
2019-03-25T02:34:18.842Z,928.54
2019-03-25T02:34:31.918Z,928.5
2019-03-25T02:34:44.881Z,928.53
2019-03-25T02:34:57.924Z,928.52
2019-03-25T02:35:10.592Z,928.54
2019-03-25T02:35:23.664Z,928.52
2019-03-25T02:35:36.684Z,928.49
2019-03-25T02:35:49.586Z,928.54
2019-03-25T02:36:02.625Z,928.53
2019-03-25T02:36:15.623Z,928.53
2019-03-25T02:36:28.657Z,928.52
2019-03-25T02:36:41.647Z,928.55
2019-03-25T02:36:54.745Z,928.52
2019-03-25T02:37:07.748Z,928.53
2019-03-25T02:37:20.781Z,928.52
2019-03-25T02:37:33.866Z,928.53
2019-03-25T02:37:46.857Z,928.53
2019-03-25T02:37:59.883Z,928.49
2019-03-25T02:38:13.049Z,928.51
2019-03-25T02:38:26.123Z,928.55
2019-03-25T02:38:39.056Z,928.51
2019-03-25T02:38:51.954Z,928.52
2019-03-25T02:39:04.915Z,928.47
2019-03-25T02:39:17.883Z,928.5
2019-03-25T02:39:30.891Z,928.51
2019-03-25T02:39:43.787Z,928.49
2019-03-25T02:39:56.299Z,928.52
2019-03-25T02:40:09.382Z,928.5
2019-03-25T02:40:22.461Z,928.53
2019-03-25T02:40:35.503Z,928.54
2019-03-25T02:40:48.599Z,928.49
2019-03-25T02:41:01.651Z,928.52
2019-03-25T02:41:14.803Z,928.5
2019-03-25T02:41:29.163Z,928.53
2019-03-25T02:41:42.228Z,928.5
2019-03-25T02:41:55.224Z,928.49
2019-03-25T02:42:08.260Z,928.49
2019-03-25T02:42:20.900Z,928.54
2019-03-25T02:42:33.866Z,928.52
2019-03-25T02:42:46.904Z,928.55
2019-03-25T02:42:59.934Z,928.52
2019-03-25T02:43:13.007Z,928.54
2019-03-25T02:43:25.947Z,928.53
2019-03-25T02:43:38.999Z,928.54
2019-03-25T02:43:51.924Z,928.52
2019-03-25T02:44:04.960Z,928.51
2019-03-25T02:44:17.950Z,928.51
2019-03-25T02:44:30.936Z,928.52
2019-03-25T02:44:43.975Z,928.52